nws-alerts: Checking more than four warning/county codes can delay the loading of your pages. You should use a cron job to get the data.
EllijayWeather Historical Data
Daily Summary for April 15, 2019 Units:  English    Metric   Both
Daily Weekly Monthly Yearly
  High: Low: Average:
Temperature: 61.0 °F 41.0 °F 50.5 °F
Dew Point: 47.0 °F 33.0 °F 36.7 °F
Humidity: 91% 36% 62%
Wind Speed: 15mph 0mph 3.8mph
Wind Gust: 19mph - -
Wind- - West
Pressure: 30.2 in 29.8 in -
Precipitation: 0.010 in    
 
 
Tabular Data for April 15, 2019
Time Temperature Dew Point Pressure Wind Wind Speed Wind Gust Humidity Rainfall Rate (Hourly)
00:04 51.0 °F 47.0 °F 29.8 in NW 15 mph 17 mph 88% 0.010 in
00:09 51.0 °F 47.0 °F 29.8 in WNW 10 mph 14 mph 89% 0.010 in
00:14 50.0 °F 47.0 °F 29.8 in West 7 mph 11 mph 90% 0.010 in
00:19 50.0 °F 47.0 °F 29.8 in WNW 8 mph 9 mph 90% 0.010 in
00:24 49.0 °F 47.0 °F 29.8 in WNW 1 mph 9 mph 91% 0.010 in
00:29 49.0 °F 46.0 °F 29.8 in Calm   4 mph 90% 0.010 in
00:34 49.0 °F 47.0 °F 29.8 in Calm     91% 0.010 in
00:39 49.0 °F 47.0 °F 29.8 in ENE 1 mph 1 mph 91% 0.010 in
00:44 49.0 °F 46.0 °F 29.8 in ENE 1 mph 1 mph 90% 0.010 in
00:49 49.0 °F 46.0 °F 29.8 in NNW 3 mph 3 mph 89% 0.010 in
00:54 49.0 °F 46.0 °F 29.8 in Calm     89% 0.010 in
00:59 49.0 °F 46.0 °F 29.8 in Calm   2 mph 90% 0.010 in
01:04 49.0 °F 46.0 °F 29.8 in NW 1 mph 4 mph 89% 0.010 in
01:09 49.0 °F 46.0 °F 29.8 in NNW 4 mph 5 mph 89% 0.000 in
01:14 49.0 °F 46.0 °F 29.8 in WNW 1 mph 3 mph 88% 0.000 in
01:19 49.0 °F 46.0 °F 29.8 in NNW 3 mph 4 mph 89% 0.000 in
01:24 49.0 °F 45.0 °F 29.8 in NW 5 mph 6 mph 86% 0.000 in
01:29 49.0 °F 45.0 °F 29.8 in NNW 9 mph 9 mph 86% 0.000 in
01:34 49.0 °F 44.0 °F 29.8 in NNW 6 mph 11 mph 84% 0.000 in
01:39 49.0 °F 44.0 °F 29.8 in NW 6 mph 7 mph 84% 0.000 in
01:44 49.0 °F 44.0 °F 29.8 in NNW 3 mph 10 mph 82% 0.000 in
01:49 49.0 °F 44.0 °F 29.8 in NW 1 mph 4 mph 84% 0.000 in
01:54 49.0 °F 44.0 °F 29.9 in NW 15 mph 18 mph 83% 0.000 in
01:59 48.0 °F 43.0 °F 29.9 in North 6 mph 18 mph 82% 0.000 in
02:04 48.0 °F 43.0 °F 29.9 in WNW 3 mph 8 mph 82% 0.000 in
02:09 48.0 °F 42.0 °F 29.9 in NW 1 mph 6 mph 81% 0.000 in
02:14 48.0 °F 42.0 °F 29.9 in WNW 4 mph 10 mph 80% 0.000 in
02:19 48.0 °F 42.0 °F 29.9 in NW 7 mph 9 mph 80% 0.000 in
02:24 47.0 °F 41.0 °F 29.9 in West 5 mph 12 mph 80% 0.000 in
02:29 47.0 °F 41.0 °F 29.9 in NW 11 mph 12 mph 79% 0.000 in
02:34 47.0 °F 41.0 °F 29.9 in West 4 mph 12 mph 80% 0.000 in
02:39 47.0 °F 41.0 °F 29.9 in NW 3 mph 6 mph 81% 0.000 in
02:44 47.0 °F 41.0 °F 29.9 in NW 4 mph 10 mph 80% 0.000 in
02:49 47.0 °F 41.0 °F 29.9 in North 6 mph 10 mph 79% 0.000 in
02:54 47.0 °F 41.0 °F 29.9 in West 5 mph 7 mph 79% 0.000 in
02:59 47.0 °F 40.0 °F 29.9 in NW 9 mph 11 mph 78% 0.000 in
03:04 46.0 °F 40.0 °F 29.9 in NW 2 mph 9 mph 78% 0.000 in
03:09 46.0 °F 39.0 °F 29.9 in NW 7 mph 11 mph 77% 0.000 in
03:14 46.0 °F 40.0 °F 29.9 in NW 6 mph 13 mph 78% 0.000 in
03:19 46.0 °F 40.0 °F 29.9 in WNW 3 mph 7 mph 78% 0.000 in
03:24 46.0 °F 40.0 °F 29.9 in NNW 3 mph 9 mph 78% 0.000 in
03:29 46.0 °F 40.0 °F 29.9 in NW 10 mph 10 mph 78% 0.000 in
03:34 46.0 °F 39.0 °F 29.9 in WNW 6 mph 6 mph 78% 0.000 in
03:39 46.0 °F 39.0 °F 29.9 in WNW 4 mph 11 mph 78% 0.000 in
03:44 46.0 °F 39.0 °F 29.9 in West 2 mph 8 mph 79% 0.000 in
03:49 45.0 °F 39.0 °F 29.9 in NW 1 mph 6 mph 79% 0.000 in
03:54 45.0 °F 39.0 °F 29.9 in NW 5 mph 7 mph 79% 0.000 in
03:59 45.0 °F 39.0 °F 29.9 in WNW 6 mph 8 mph 79% 0.000 in
04:04 45.0 °F 39.0 °F 29.9 in WNW 8 mph 10 mph 79% 0.000 in
04:09 44.0 °F 38.0 °F 29.9 in WNW 3 mph 8 mph 79% 0.000 in
04:14 44.0 °F 38.0 °F 29.9 in NW 5 mph 6 mph 79% 0.000 in
04:19 44.0 °F 38.0 °F 29.9 in East 2 mph 3 mph 79% 0.000 in
04:24 44.0 °F 38.0 °F 29.9 in Calm   2 mph 79% 0.000 in
04:29 44.0 °F 39.0 °F 29.9 in WSW 1 mph 4 mph 80% 0.000 in
04:34 44.0 °F 38.0 °F 29.9 in NW 8 mph 9 mph 80% 0.000 in
04:39 44.0 °F 38.0 °F 29.9 in NNW 3 mph 8 mph 79% 0.000 in
04:44 44.0 °F 37.0 °F 29.9 in North 7 mph 12 mph 77% 0.000 in
04:49 44.0 °F 36.0 °F 29.9 in NW 4 mph 12 mph 76% 0.000 in
04:54 43.0 °F 36.0 °F 29.9 in North 5 mph 11 mph 75% 0.000 in
04:59 43.0 °F 36.0 °F 29.9 in West 9 mph 11 mph 77% 0.000 in
05:04 43.0 °F 37.0 °F 29.9 in NW 4 mph 4 mph 78% 0.000 in
05:09 43.0 °F 36.0 °F 29.9 in NNW 2 mph 4 mph 77% 0.000 in
05:14 43.0 °F 36.0 °F 29.9 in NW 1 mph 1 mph 78% 0.000 in
05:19 43.0 °F 36.0 °F 29.9 in West 3 mph 4 mph 77% 0.000 in
05:24 42.0 °F 36.0 °F 29.9 in West 3 mph 4 mph 77% 0.000 in
05:29 42.0 °F 36.0 °F 29.9 in NW 2 mph 4 mph 77% 0.000 in
05:34 42.0 °F 36.0 °F 29.9 in NW 3 mph 5 mph 77% 0.000 in
05:39 42.0 °F 36.0 °F 29.9 in North 1 mph 5 mph 77% 0.000 in
05:44 42.0 °F 36.0 °F 29.9 in Calm   5 mph 78% 0.000 in
05:49 42.0 °F 36.0 °F 29.9 in NNW 5 mph 9 mph 78% 0.000 in
05:54 42.0 °F 35.0 °F 29.9 in WSW 4 mph 6 mph 77% 0.000 in
05:59 42.0 °F 35.0 °F 29.9 in WNW 3 mph 3 mph 76% 0.000 in
06:04 42.0 °F 35.0 °F 29.9 in NW 4 mph 7 mph 77% 0.000 in
06:09 42.0 °F 35.0 °F 29.9 in Calm   4 mph 77% 0.000 in
06:14 42.0 °F 35.0 °F 29.9 in WNW 4 mph 6 mph 76% 0.000 in
06:19 42.0 °F 34.0 °F 29.9 in Calm   6 mph 74% 0.000 in
06:24 42.0 °F 35.0 °F 30.0 in NNW 2 mph 2 mph 76% 0.000 in
06:29 42.0 °F 34.0 °F 30.0 in NNW 2 mph 4 mph 75% 0.000 in
06:34 42.0 °F 34.0 °F 30.0 in NW 3 mph 3 mph 74% 0.000 in
06:39 42.0 °F 35.0 °F 30.0 in NNW 1 mph 4 mph 76% 0.000 in
06:44 42.0 °F 34.0 °F 30.0 in West 3 mph 4 mph 75% 0.000 in
06:49 42.0 °F 35.0 °F 30.0 in NW 2 mph 3 mph 76% 0.000 in
06:54 42.0 °F 34.0 °F 30.0 in NW 3 mph 4 mph 75% 0.000 in
06:59 42.0 °F 35.0 °F 30.0 in Calm   4 mph 76% 0.000 in
07:04 42.0 °F 35.0 °F 30.0 in WNW 2 mph 4 mph 76% 0.000 in
07:09 42.0 °F 34.0 °F 30.0 in Calm     75% 0.000 in
07:14 42.0 °F 34.0 °F 30.0 in NNW 1 mph 4 mph 75% 0.000 in
07:19 41.0 °F 34.0 °F 30.0 in North 1 mph 4 mph 75% 0.000 in
07:24 41.0 °F 34.0 °F 30.0 in NW 1 mph 7 mph 76% 0.000 in
07:29 41.0 °F 34.0 °F 30.0 in NW 1 mph 7 mph 74% 0.000 in
07:34 42.0 °F 34.0 °F 30.0 in Calm   1 mph 75% 0.000 in
07:39 42.0 °F 34.0 °F 30.0 in WNW 2 mph 4 mph 75% 0.000 in
07:44 42.0 °F 35.0 °F 30.0 in NE 4 mph 5 mph 76% 0.000 in
07:49 42.0 °F 35.0 °F 30.0 in WNW 2 mph 5 mph 76% 0.000 in
07:54 42.0 °F 34.0 °F 30.0 in Calm   5 mph 74% 0.000 in
07:59 42.0 °F 34.0 °F 30.0 in NW 2 mph 3 mph 73% 0.000 in
08:04 42.0 °F 34.0 °F 30.0 in WSW 5 mph 12 mph 73% 0.000 in
08:09 43.0 °F 35.0 °F 30.0 in NW 2 mph 7 mph 73% 0.000 in
08:14 43.0 °F 34.0 °F 30.0 in NW 5 mph 5 mph 71% 0.000 in
08:19 43.0 °F 33.0 °F 30.0 in NNW 4 mph 7 mph 69% 0.000 in
08:24 43.0 °F 34.0 °F 30.0 in NW 7 mph 13 mph 69% 0.000 in
08:29 44.0 °F 34.0 °F 30.0 in NW 5 mph 13 mph 69% 0.000 in
08:34 44.0 °F 34.0 °F 30.0 in NW 4 mph 8 mph 68% 0.000 in
08:39 44.0 °F 33.0 °F 30.0 in NNW 10 mph 10 mph 66% 0.000 in
08:44 44.0 °F 33.0 °F 30.1 in NW 7 mph 11 mph 65% 0.000 in
08:49 44.0 °F 34.0 °F 30.1 in NW 3 mph 5 mph 66% 0.000 in
08:54 45.0 °F 34.0 °F 30.1 in NW 3 mph 6 mph 65% 0.000 in
08:59 45.0 °F 34.0 °F 30.1 in NE 2 mph 6 mph 65% 0.000 in
09:04 45.0 °F 34.0 °F 30.1 in NW 7 mph 9 mph 65% 0.000 in
09:09 45.0 °F 33.0 °F 30.1 in North 3 mph 5 mph 63% 0.000 in
09:14 45.0 °F 33.0 °F 30.1 in NNW 10 mph 10 mph 62% 0.000 in
09:19 46.0 °F 35.0 °F 30.1 in NNW 4 mph 10 mph 65% 0.000 in
09:24 46.0 °F 33.0 °F 30.1 in WNW 3 mph 6 mph 62% 0.000 in
09:29 46.0 °F 34.0 °F 30.1 in NNW 5 mph 8 mph 62% 0.000 in
09:34 46.0 °F 34.0 °F 30.1 in North 3 mph 5 mph 62% 0.000 in
09:39 46.0 °F 34.0 °F 30.1 in NNW 6 mph 15 mph 63% 0.000 in
09:44 47.0 °F 34.0 °F 30.1 in WNW 6 mph 10 mph 61% 0.000 in
09:49 47.0 °F 34.0 °F 30.1 in North 4 mph 10 mph 61% 0.000 in
09:54 47.0 °F 34.0 °F 30.1 in NNW 7 mph 8 mph 60% 0.000 in
09:59 47.0 °F 34.0 °F 30.1 in NW 8 mph 12 mph 60% 0.000 in
10:04 47.0 °F 34.0 °F 30.1 in WNW 6 mph 10 mph 60% 0.000 in
10:09 47.0 °F 33.0 °F 30.1 in WNW 3 mph 11 mph 59% 0.000 in
10:14 48.0 °F 33.0 °F 30.1 in NW 4 mph 12 mph 58% 0.000 in
10:19 48.0 °F 33.0 °F 30.1 in NNW 7 mph 11 mph 57% 0.000 in
10:24 48.0 °F 33.0 °F 30.1 in NW 9 mph 11 mph 57% 0.000 in
10:29 48.0 °F 34.0 °F 30.1 in WNW 8 mph 12 mph 57% 0.000 in
10:34 49.0 °F 34.0 °F 30.1 in NW 10 mph 12 mph 57% 0.000 in
10:39 49.0 °F 34.0 °F 30.1 in NNE 7 mph 9 mph 56% 0.000 in
10:44 49.0 °F 34.0 °F 30.1 in NW 8 mph 8 mph 55% 0.000 in
10:49 50.0 °F 34.0 °F 30.1 in NNW 5 mph 8 mph 55% 0.000 in
10:54 50.0 °F 34.0 °F 30.1 in NW 5 mph 6 mph 56% 0.000 in
10:59 50.0 °F 35.0 °F 30.1 in WNW 3 mph 7 mph 57% 0.000 in
11:04 51.0 °F 35.0 °F 30.1 in NW 5 mph 7 mph 55% 0.000 in
11:09 51.0 °F 35.0 °F 30.1 in North 3 mph 7 mph 54% 0.000 in
11:14 51.0 °F 36.0 °F 30.1 in NW 7 mph 9 mph 55% 0.000 in
11:19 51.0 °F 36.0 °F 30.1 in North 6 mph 8 mph 55% 0.000 in
11:24 52.0 °F 35.0 °F 30.1 in WNW 5 mph 8 mph 53% 0.000 in
11:29 52.0 °F 35.0 °F 30.1 in SSW 4 mph 8 mph 53% 0.000 in
11:34 52.0 °F 35.0 °F 30.1 in NW 4 mph 7 mph 52% 0.000 in
11:39 52.0 °F 35.0 °F 30.1 in NW 7 mph 8 mph 53% 0.000 in
11:44 52.0 °F 37.0 °F 30.1 in WNW 11 mph 11 mph 55% 0.000 in
11:49 52.0 °F 35.0 °F 30.1 in NW 11 mph 11 mph 51% 0.000 in
11:54 53.0 °F 35.0 °F 30.1 in North 6 mph 7 mph 51% 0.000 in
11:59 53.0 °F 35.0 °F 30.1 in NW 8 mph 9 mph 51% 0.000 in
12:04 53.0 °F 35.0 °F 30.1 in NNE 4 mph 9 mph 50% 0.000 in
12:09 54.0 °F 35.0 °F 30.1 in NNW 6 mph 9 mph 49% 0.000 in
12:14 54.0 °F 33.0 °F 30.1 in North 7 mph 13 mph 45% 0.000 in
12:19 54.0 °F 33.0 °F 30.1 in West 6 mph 12 mph 46% 0.000 in
12:24 54.0 °F 34.0 °F 30.1 in NE 6 mph 12 mph 46% 0.000 in
12:29 55.0 °F 34.0 °F 30.1 in North 6 mph 7 mph 46% 0.000 in
12:34 54.0 °F 35.0 °F 30.1 in WNW 7 mph 11 mph 47% 0.000 in
12:39 55.0 °F 35.0 °F 30.1 in NE 4 mph 9 mph 48% 0.000 in
12:44 55.0 °F 36.0 °F 30.1 in WNW 3 mph 3 mph 49% 0.000 in
12:49 55.0 °F 35.0 °F 30.1 in NW 6 mph 9 mph 47% 0.000 in
12:54 55.0 °F 35.0 °F 30.1 in WNW 3 mph 8 mph 47% 0.000 in
12:59 55.0 °F 36.0 °F 30.1 in NW 6 mph 8 mph 48% 0.000 in
13:04 55.0 °F 36.0 °F 30.1 in WNW 5 mph 7 mph 48% 0.000 in
13:09 56.0 °F 35.0 °F 30.1 in WNW 4 mph 6 mph 46% 0.000 in
13:14 56.0 °F 35.0 °F 30.1 in NW 5 mph 8 mph 46% 0.000 in
13:19 56.0 °F 35.0 °F 30.1 in WNW 6 mph 9 mph 46% 0.000 in
13:24 56.0 °F 35.0 °F 30.1 in North 7 mph 9 mph 45% 0.000 in
13:29 56.0 °F 35.0 °F 30.1 in North 8 mph 11 mph 46% 0.000 in
13:34 56.0 °F 34.0 °F 30.1 in NW 3 mph 6 mph 44% 0.000 in
13:39 56.0 °F 36.0 °F 30.1 in NW 8 mph 8 mph 46% 0.000 in
13:44 57.0 °F 36.0 °F 30.1 in NW 6 mph 12 mph 46% 0.000 in
13:49 57.0 °F 36.0 °F 30.1 in West 5 mph 12 mph 45% 0.000 in
13:54 57.0 °F 35.0 °F 30.1 in NNE 8 mph 8 mph 44% 0.000 in
13:59 57.0 °F 35.0 °F 30.1 in NW 10 mph 10 mph 44% 0.000 in
14:04 57.0 °F 35.0 °F 30.1 in NNW 6 mph 12 mph 44% 0.000 in
14:09 57.0 °F 36.0 °F 30.1 in North 12 mph 14 mph 45% 0.000 in
14:14 57.0 °F 35.0 °F 30.1 in NW 5 mph 13 mph 43% 0.000 in
14:19 57.0 °F 36.0 °F 30.1 in North 3 mph 9 mph 45% 0.000 in
14:24 58.0 °F 36.0 °F 30.1 in NE 7 mph 9 mph 45% 0.000 in
14:29 58.0 °F 36.0 °F 30.1 in NW 6 mph 8 mph 45% 0.000 in
14:34 58.0 °F 37.0 °F 30.1 in NW 7 mph 7 mph 45% 0.000 in
14:39 58.0 °F 37.0 °F 30.1 in ENE 6 mph 11 mph 45% 0.000 in
14:44 58.0 °F 36.0 °F 30.1 in North 5 mph 8 mph 43% 0.000 in
14:49 59.0 °F 37.0 °F 30.1 in North 3 mph 8 mph 44% 0.000 in
14:54 59.0 °F 36.0 °F 30.1 in NW 4 mph 6 mph 43% 0.000 in
14:59 59.0 °F 37.0 °F 30.1 in WNW 3 mph 7 mph 44% 0.000 in
15:04 59.0 °F 36.0 °F 30.1 in NNW 5 mph 9 mph 43% 0.000 in
15:09 59.0 °F 36.0 °F 30.1 in NW 4 mph 7 mph 43% 0.000 in
15:14 59.0 °F 36.0 °F 30.1 in NNW 8 mph 8 mph 42% 0.000 in
15:19 59.0 °F 36.0 °F 30.1 in NE 2 mph 9 mph 41% 0.000 in
15:24 59.0 °F 36.0 °F 30.1 in North 6 mph 12 mph 42% 0.000 in
15:29 60.0 °F 37.0 °F 30.1 in NE 7 mph 7 mph 42% 0.000 in
15:34 60.0 °F 36.0 °F 30.1 in NNW 7 mph 9 mph 41% 0.000 in
15:39 60.0 °F 35.0 °F 30.1 in ENE 7 mph 9 mph 39% 0.000 in
15:44 60.0 °F 35.0 °F 30.1 in WSW 5 mph 10 mph 39% 0.000 in
15:49 60.0 °F 36.0 °F 30.1 in WNW 5 mph 9 mph 41% 0.000 in
15:54 60.0 °F 35.0 °F 30.1 in NNW 2 mph 9 mph 39% 0.000 in
15:59 60.0 °F 35.0 °F 30.1 in NW 10 mph 19 mph 39% 0.000 in
16:04 60.0 °F 35.0 °F 30.1 in NW 5 mph 19 mph 39% 0.000 in
16:09 60.0 °F 35.0 °F 30.1 in WNW 5 mph 11 mph 39% 0.000 in
16:14 60.0 °F 35.0 °F 30.1 in WNW 7 mph 11 mph 38% 0.000 in
16:19 60.0 °F 35.0 °F 30.1 in North 4 mph 8 mph 38% 0.000 in
16:24 60.0 °F 35.0 °F 30.1 in NNW 6 mph 7 mph 38% 0.000 in
16:29 60.0 °F 35.0 °F 30.1 in WNW 3 mph 8 mph 38% 0.000 in
16:34 60.0 °F 35.0 °F 30.1 in WNW 6 mph 11 mph 38% 0.000 in
16:39 61.0 °F 35.0 °F 30.1 in West 9 mph 9 mph 39% 0.000 in
16:44 60.0 °F 34.0 °F 30.1 in WNW 4 mph 10 mph 37% 0.000 in
16:49 60.0 °F 35.0 °F 30.1 in NNE 3 mph 9 mph 39% 0.000 in
16:54 60.0 °F 35.0 °F 30.1 in North 2 mph 8 mph 39% 0.000 in
16:59 60.0 °F 35.0 °F 30.1 in North 7 mph 8 mph 38% 0.000 in
17:04 61.0 °F 35.0 °F 30.1 in WNW 6 mph 8 mph 38% 0.000 in
17:09 61.0 °F 34.0 °F 30.1 in NW 3 mph 9 mph 37% 0.000 in
17:14 61.0 °F 35.0 °F 30.1 in NW 4 mph 8 mph 38% 0.000 in
17:19 61.0 °F 35.0 °F 30.1 in NW 9 mph 9 mph 38% 0.000 in
17:24 61.0 °F 34.0 °F 30.1 in NNE 7 mph 9 mph 37% 0.000 in
17:29 61.0 °F 36.0 °F 30.1 in WSW 7 mph 9 mph 39% 0.000 in
17:34 61.0 °F 34.0 °F 30.1 in WNW 9 mph 11 mph 37% 0.000 in
17:39 60.0 °F 34.0 °F 30.1 in North 5 mph 7 mph 37% 0.000 in
17:44 60.0 °F 35.0 °F 30.1 in NW 5 mph 6 mph 38% 0.000 in
17:49 60.0 °F 35.0 °F 30.1 in NW 6 mph 10 mph 38% 0.000 in
17:54 60.0 °F 35.0 °F 30.1 in West 1 mph 10 mph 39% 0.000 in
17:59 60.0 °F 36.0 °F 30.1 in ENE 3 mph 4 mph 40% 0.000 in
18:04 60.0 °F 35.0 °F 30.1 in NW 6 mph 6 mph 38% 0.000 in
18:09 60.0 °F 35.0 °F 30.1 in Calm   8 mph 39% 0.000 in
18:14 60.0 °F 34.0 °F 30.1 in NNW 3 mph 5 mph 37% 0.000 in
18:19 60.0 °F 33.0 °F 30.1 in NNW 6 mph 7 mph 36% 0.000 in
18:24 60.0 °F 34.0 °F 30.1 in WNW 4 mph 11 mph 37% 0.000 in
18:29 60.0 °F 34.0 °F 30.1 in North 3 mph 8 mph 37% 0.000 in
18:34 60.0 °F 34.0 °F 30.1 in North 3 mph 4 mph 38% 0.000 in
18:39 60.0 °F 37.0 °F 30.1 in Calm   1 mph 42% 0.000 in
18:44 60.0 °F 35.0 °F 30.1 in North 5 mph 6 mph 40% 0.000 in
18:49 60.0 °F 33.0 °F 30.1 in NNW 2 mph 6 mph 37% 0.000 in
18:54 60.0 °F 33.0 °F 30.1 in North 7 mph 9 mph 37% 0.000 in
18:59 59.0 °F 35.0 °F 30.1 in Calm   7 mph 40% 0.000 in
19:04 59.0 °F 35.0 °F 30.1 in NE 1 mph 1 mph 40% 0.000 in
19:09 59.0 °F 35.0 °F 30.1 in WNW 2 mph 4 mph 41% 0.000 in
19:14 59.0 °F 34.0 °F 30.1 in NW 1 mph 4 mph 39% 0.000 in
19:19 59.0 °F 35.0 °F 30.1 in WNW 2 mph 3 mph 40% 0.000 in
19:24 59.0 °F 36.0 °F 30.2 in West 1 mph 3 mph 42% 0.000 in
19:29 59.0 °F 34.0 °F 30.2 in NNE 2 mph 4 mph 39% 0.000 in
19:34 58.0 °F 34.0 °F 30.2 in NNW 3 mph 5 mph 40% 0.000 in
19:39 58.0 °F 36.0 °F 30.2 in Calm   5 mph 43% 0.000 in
19:44 58.0 °F 35.0 °F 30.2 in North 5 mph 5 mph 42% 0.000 in
19:49 58.0 °F 34.0 °F 30.2 in WNW 1 mph 6 mph 41% 0.000 in
19:54 58.0 °F 35.0 °F 30.2 in NW 3 mph 5 mph 42% 0.000 in
19:59 57.0 °F 34.0 °F 30.2 in NW 2 mph 4 mph 42% 0.000 in
20:04 57.0 °F 35.0 °F 30.2 in Calm   2 mph 43% 0.000 in
20:09 57.0 °F 37.0 °F 30.2 in Calm   1 mph 48% 0.000 in
20:14 57.0 °F 37.0 °F 30.2 in NNW 2 mph 5 mph 47% 0.000 in
20:19 56.0 °F 35.0 °F 30.2 in NW 1 mph 3 mph 45% 0.000 in
20:24 56.0 °F 36.0 °F 30.2 in Calm     47% 0.000 in
20:29 55.0 °F 37.0 °F 30.2 in Calm     50% 0.000 in
20:34 55.0 °F 37.0 °F 30.2 in Calm     50% 0.000 in
20:39 55.0 °F 36.0 °F 30.2 in Calm     49% 0.000 in
20:44 54.0 °F 36.0 °F 30.2 in Calm     51% 0.000 in
20:49 54.0 °F 36.0 °F 30.2 in Calm     52% 0.000 in
20:54 53.0 °F 37.0 °F 30.2 in Calm     54% 0.000 in
20:59 53.0 °F 37.0 °F 30.2 in Calm     55% 0.000 in
21:04 52.0 °F 37.0 °F 30.2 in Calm     56% 0.000 in
21:09 52.0 °F 37.0 °F 30.2 in Calm     57% 0.000 in
21:14 51.0 °F 37.0 °F 30.2 in Calm     59% 0.000 in
21:19 51.0 °F 37.0 °F 30.2 in Calm     60% 0.000 in
21:24 50.0 °F 37.0 °F 30.2 in Calm     61% 0.000 in
21:29 50.0 °F 37.0 °F 30.2 in Calm     63% 0.000 in
21:34 49.0 °F 38.0 °F 30.2 in Calm     65% 0.000 in
21:39 49.0 °F 38.0 °F 30.2 in Calm     65% 0.000 in
21:44 49.0 °F 37.0 °F 30.2 in Calm     64% 0.000 in
21:49 48.0 °F 38.0 °F 30.2 in Calm     67% 0.000 in
21:54 48.0 °F 37.0 °F 30.2 in Calm     67% 0.000 in
21:59 48.0 °F 38.0 °F 30.2 in Calm     68% 0.000 in
22:04 48.0 °F 37.0 °F 30.2 in Calm     69% 0.000 in
22:09 47.0 °F 38.0 °F 30.2 in Calm     70% 0.000 in
22:14 47.0 °F 37.0 °F 30.2 in Calm     69% 0.000 in
22:19 46.0 °F 37.0 °F 30.2 in Calm     69% 0.000 in
22:24 46.0 °F 37.0 °F 30.2 in Calm     70% 0.000 in
22:29 46.0 °F 37.0 °F 30.2 in Calm     71% 0.000 in
22:34 46.0 °F 37.0 °F 30.2 in Calm     73% 0.000 in
22:39 45.0 °F 38.0 °F 30.2 in Calm     74% 0.000 in
22:44 45.0 °F 37.0 °F 30.2 in Calm     74% 0.000 in
22:49 45.0 °F 37.0 °F 30.2 in Calm     75% 0.000 in
22:54 44.0 °F 37.0 °F 30.2 in Calm     75% 0.000 in
22:59 44.0 °F 37.0 °F 30.2 in Calm     76% 0.000 in
23:04 44.0 °F 37.0 °F 30.2 in Calm     76% 0.000 in
23:09 44.0 °F 37.0 °F 30.2 in Calm     77% 0.000 in
23:14 44.0 °F 37.0 °F 30.2 in Calm     77% 0.000 in
23:19 44.0 °F 37.0 °F 30.2 in Calm     78% 0.000 in
23:24 43.0 °F 37.0 °F 30.2 in Calm     78% 0.000 in
23:29 43.0 °F 37.0 °F 30.2 in Calm     79% 0.000 in
23:34 43.0 °F 37.0 °F 30.2 in Calm     79% 0.000 in
23:39 43.0 °F 37.0 °F 30.2 in Calm     79% 0.000 in
23:44 43.0 °F 37.0 °F 30.2 in Calm     80% 0.000 in
23:49 42.0 °F 37.0 °F 30.2 in Calm     81% 0.000 in
23:54 42.0 °F 37.0 °F 30.2 in Calm     81% 0.000 in
23:59 42.0 °F 37.0 °F 30.2 in Calm     82% 0.000 in
East Ellijay Weather
Compliments of Weather Underground - 2 mb